Tamworth, NH (03886)

2:11 PM EDT on July 28, 2015 (GMT -0400)
APRSWXNET | | Change Station
CLOSE
Current Station
Personal Weather Station
Location: North Sandwich, NH
Elevation: 810 ft
Nearby Weather Stations

Elev 810 ft 43.86 °N, 71.40 °W | Updated 29 minutes ago

Clear
Clear
83 °F
Feels Like 85 °F
N
0
Wind Variable Wind from SW
Gusts 6.0 mph

Today
High -- | Low -- °F
--% Chance of Precip.
Yesterday
High -- | Low -- °F
Precip. -- in
5:29 AM 8:13 PM
Waxing Gibbous, 91% visible
Pressure 29.95 in
Visibility 10.0 miles
Clouds Clear
Heat Index 85 °F
Dew Point 66 °F
Humidity 57%
Rainfall in
Snow Depth Not available.
UV 10 out of 12
Pollen 5.20 out of 12
Air Quality Not available.
Flu Activity Not available.
METAR KIZG 281754Z AUTO 07003KT 10SM CLR 30/17 A2995 RMK AO2 SLP140 T03000172 10300 20206 58007

More Conditions Fewer Conditions

Pressure 29.95 in
Visibility 10.0 miles
Clouds Clear
Heat Index 85 °F
Dew Point 66 °F
Humidity 57%
Rainfall in
Snow Depth Not available.
UV 10 out of 12
Pollen 5.20 out of 12
Air Quality Not available.
Flu Activity Not available.
METAR KIZG 281754Z AUTO 07003KT 10SM CLR 30/17 A2995 RMK AO2 SLP140 T03000172 10300 20206 58007

More Conditions Fewer Conditions

10-Day Weather Forecast

×

Almanac

Astronomy

Jul. 28, 2015 Rise Set
Actual Time
Civil Twilight
Nautical Twilight
Astronomical Twilight
Moon
Length of Visible Light
Length of Day
Tomorrow will be .
, % of the Moon is Illuminated

Today's Extremes

State Highs State Lows

Community

WunderPhotos

Upload Photos

1,841,906 photos uploaded!

WunderBlogs® & News

Nearby

Air Quality

  Air Quality AQ Index Pollutant
Not available.

Snow Depth

Station Depth Elevation

Earthquake Activity

City Distance Mag. Time & Date
Minimum magnitude displayed is 2.5.

Coastal Water Temperatures

Place Temperature

Stations

Nearby Weather Stations

Station Location Temp. Windchill Dew Point Humidity Wind Precip. Elev Updated Type